DAL8635 KSLC-KDEN
Flight info
| Callsign | DAL8635 |
|---|---|
| Flight time | 1h 2m |
| Altitude | 35000 |
| Route | RUGGD3 PERTY KAMPR LONGZ4 |
| Aircraft | A321/M-SDE3FGHIRWY/LB1 |
Departure
| Time | 2026-05-03 22:58 |
|---|---|
| Airport | Salt Lake City International Airport (KSLC) |
Arrival
| Time | 2026-05-04 00:01 |
|---|---|
| Airport | Denver International Airport (KDEN) |
| Time | Latitude | Longitude | Altitude | Speed | Heading |
|---|---|---|---|---|---|
| 2026-05-03 22:25 | 40.78833 | -111.98768 | 4234 ft | 0 kts | 5° |
| 2026-05-03 22:47 | 40.78823 | -111.98769 | 4234 ft | 4 kts | 5° |
| 2026-05-03 22:47 | 40.78796 | -111.98773 | 4234 ft | 4 kts | 359° |
| 2026-05-03 22:47 | 40.78771 | -111.98766 | 4233 ft | 4 kts | 324° |
| 2026-05-03 22:48 | 40.78758 | -111.98743 | 4233 ft | 3 kts | 266° |
| 2026-05-03 22:48 | 40.78758 | -111.98739 | 4233 ft | 0 kts | 264° |
| 2026-05-03 22:51 | 40.78758 | -111.98741 | 4233 ft | 2 kts | 264° |
| 2026-05-03 22:52 | 40.78752 | -111.98828 | 4235 ft | 17 kts | 264° |
| 2026-05-03 22:52 | 40.78741 | -111.98988 | 4235 ft | 11 kts | 265° |
| 2026-05-03 22:52 | 40.78734 | -111.99084 | 4235 ft | 12 kts | 264° |
| 2026-05-03 22:52 | 40.78723 | -111.99243 | 4235 ft | 20 kts | 265° |
| 2026-05-03 22:53 | 40.78717 | -111.99418 | 4235 ft | 18 kts | 265° |
| 2026-05-03 22:53 | 40.78630 | -111.99459 | 4235 ft | 15 kts | 168° |
| 2026-05-03 22:53 | 40.78533 | -111.99447 | 4235 ft | 13 kts | 177° |
| 2026-05-03 22:53 | 40.78448 | -111.99442 | 4235 ft | 11 kts | 178° |
| 2026-05-03 22:54 | 40.78374 | -111.99436 | 4235 ft | 10 kts | 175° |
| 2026-05-03 22:54 | 40.78311 | -111.99429 | 4234 ft | 9 kts | 174° |
| 2026-05-03 22:54 | 40.78231 | -111.99416 | 4234 ft | 14 kts | 173° |
| 2026-05-03 22:54 | 40.78134 | -111.99406 | 4234 ft | 13 kts | 178° |
| 2026-05-03 22:55 | 40.78050 | -111.99423 | 4234 ft | 11 kts | 194° |
| 2026-05-03 22:55 | 40.77977 | -111.99437 | 4234 ft | 10 kts | 184° |
| 2026-05-03 22:55 | 40.77915 | -111.99434 | 4234 ft | 8 kts | 173° |
| 2026-05-03 22:55 | 40.77855 | -111.99425 | 4234 ft | 10 kts | 174° |
| 2026-05-03 22:56 | 40.77790 | -111.99417 | 4234 ft | 9 kts | 176° |
| 2026-05-03 22:56 | 40.77727 | -111.99412 | 4235 ft | 9 kts | 175° |
| 2026-05-03 22:56 | 40.77660 | -111.99404 | 4235 ft | 13 kts | 174° |
| 2026-05-03 22:56 | 40.77590 | -111.99395 | 4235 ft | 8 kts | 174° |
| 2026-05-03 22:57 | 40.77531 | -111.99406 | 4235 ft | 10 kts | 214° |
| 2026-05-03 22:57 | 40.77516 | -111.99490 | 4235 ft | 11 kts | 278° |
| 2026-05-03 22:57 | 40.77599 | -111.99559 | 4235 ft | 23 kts | 355° |
| 2026-05-03 22:57 | 40.77958 | -111.99601 | 4232 ft | 84 kts | 355° |
| 2026-05-03 22:58 | 40.78733 | -111.99692 | 4235 ft | 137 kts | 355° |
| 2026-05-03 22:58 | 40.79834 | -111.99818 | 4236 ft | 178 kts | 356° |
| 2026-05-03 22:58 | 40.81052 | -111.99948 | 4852 ft | 168 kts | 355° |
| 2026-05-03 22:58 | 40.82241 | -111.99860 | 5482 ft | 170 kts | 6° |
| 2026-05-03 22:59 | 40.83405 | -111.99659 | 6023 ft | 174 kts | 7° |
| 2026-05-03 22:59 | 40.84669 | -111.99442 | 6305 ft | 194 kts | 7° |
| 2026-05-03 22:59 | 40.86065 | -111.99204 | 6474 ft | 210 kts | 7° |
| 2026-05-03 22:59 | 40.87576 | -111.98948 | 6600 ft | 228 kts | 7° |
| 2026-05-03 23:00 | 40.89205 | -111.98707 | 6716 ft | 245 kts | 2° |
| 2026-05-03 23:00 | 40.90969 | -111.98761 | 6935 ft | 260 kts | 355° |
| 2026-05-03 23:00 | 40.92794 | -111.98994 | 7340 ft | 270 kts | 353° |
| 2026-05-03 23:00 | 40.94709 | -111.99291 | 7757 ft | 282 kts | 353° |
| 2026-05-03 23:01 | 40.96671 | -111.99594 | 8407 ft | 286 kts | 353° |
| 2026-05-03 23:01 | 40.98651 | -111.99946 | 9063 ft | 289 kts | 349° |
| 2026-05-03 23:01 | 41.00637 | -112.00431 | 9720 ft | 292 kts | 350° |
| 2026-05-03 23:01 | 41.02669 | -112.00463 | 10337 ft | 295 kts | 10° |
| 2026-05-03 23:02 | 41.04638 | -111.99525 | 10626 ft | 313 kts | 32° |
| 2026-05-03 23:02 | 41.06253 | -111.97499 | 10767 ft | 333 kts | 56° |
| 2026-05-03 23:02 | 41.07329 | -111.94692 | 10978 ft | 349 kts | 65° |
| 2026-05-03 23:02 | 41.08344 | -111.91739 | 11497 ft | 355 kts | 65° |
| 2026-05-03 23:03 | 41.09377 | -111.88743 | 12077 ft | 359 kts | 65° |
| 2026-05-03 23:03 | 41.10430 | -111.85713 | 12573 ft | 364 kts | 65° |
| 2026-05-03 23:03 | 41.11370 | -111.82575 | 13020 ft | 368 kts | 75° |
| 2026-05-03 23:03 | 41.11753 | -111.79221 | 13627 ft | 370 kts | 89° |
| 2026-05-03 23:04 | 41.11521 | -111.75825 | 14227 ft | 372 kts | 103° |
| 2026-05-03 23:04 | 41.10672 | -111.72583 | 14792 ft | 375 kts | 117° |
| 2026-05-03 23:04 | 41.09251 | -111.69688 | 15322 ft | 378 kts | 129° |
| 2026-05-03 23:04 | 41.07583 | -111.66978 | 15812 ft | 381 kts | 129° |
| 2026-05-03 23:05 | 41.05900 | -111.64244 | 16284 ft | 385 kts | 129° |
| 2026-05-03 23:05 | 41.04204 | -111.61489 | 16828 ft | 386 kts | 129° |
| 2026-05-03 23:05 | 41.02503 | -111.58728 | 17330 ft | 389 kts | 129° |
| 2026-05-03 23:05 | 41.00806 | -111.55977 | 17749 ft | 393 kts | 129° |
| 2026-05-03 23:06 | 40.99072 | -111.53167 | 18199 ft | 395 kts | 129° |
| 2026-05-03 23:06 | 40.97329 | -111.50342 | 18662 ft | 397 kts | 129° |
| 2026-05-03 23:06 | 40.95575 | -111.47497 | 19085 ft | 400 kts | 129° |
| 2026-05-03 23:06 | 40.93808 | -111.44633 | 19471 ft | 403 kts | 129° |
| 2026-05-03 23:07 | 40.92155 | -111.41578 | 19890 ft | 405 kts | 120° |
| 2026-05-03 23:07 | 40.90985 | -111.38236 | 20303 ft | 408 kts | 109° |
| 2026-05-03 23:07 | 40.90303 | -111.34591 | 20670 ft | 410 kts | 98° |
| 2026-05-03 23:07 | 40.89872 | -111.30847 | 21005 ft | 413 kts | 98° |
| 2026-05-03 23:08 | 40.89432 | -111.27079 | 21361 ft | 416 kts | 99° |
| 2026-05-03 23:08 | 40.88986 | -111.23291 | 21700 ft | 418 kts | 99° |
| 2026-05-03 23:08 | 40.88536 | -111.19483 | 22065 ft | 420 kts | 99° |
| 2026-05-03 23:08 | 40.88082 | -111.15665 | 22386 ft | 423 kts | 99° |
| 2026-05-03 23:09 | 40.87621 | -111.11814 | 22672 ft | 426 kts | 99° |
| 2026-05-03 23:09 | 40.87155 | -111.07942 | 22940 ft | 428 kts | 99° |
| 2026-05-03 23:09 | 40.86685 | -111.04049 | 23204 ft | 430 kts | 99° |
| 2026-05-03 23:09 | 40.86213 | -111.00136 | 23454 ft | 433 kts | 99° |
| 2026-05-03 23:10 | 40.85735 | -110.96200 | 23671 ft | 435 kts | 99° |
| 2026-05-03 23:10 | 40.85257 | -110.92250 | 23939 ft | 436 kts | 99° |
| 2026-05-03 23:10 | 40.84775 | -110.88287 | 24202 ft | 438 kts | 99° |
| 2026-05-03 23:10 | 40.84289 | -110.84310 | 24464 ft | 439 kts | 99° |
| 2026-05-03 23:11 | 40.83800 | -110.80321 | 24744 ft | 441 kts | 99° |
| 2026-05-03 23:11 | 40.83310 | -110.76315 | 24954 ft | 443 kts | 99° |
| 2026-05-03 23:11 | 40.82818 | -110.72295 | 25150 ft | 445 kts | 99° |
| 2026-05-03 23:11 | 40.82319 | -110.68253 | 25363 ft | 447 kts | 99° |
| 2026-05-03 23:12 | 40.81818 | -110.64193 | 25564 ft | 449 kts | 99° |
| 2026-05-03 23:12 | 40.81315 | -110.60115 | 25685 ft | 451 kts | 99° |
| 2026-05-03 23:12 | 40.80807 | -110.56023 | 25903 ft | 452 kts | 99° |
| 2026-05-03 23:12 | 40.80297 | -110.51920 | 26055 ft | 454 kts | 99° |
| 2026-05-03 23:13 | 40.79785 | -110.47814 | 26228 ft | 455 kts | 99° |
| 2026-05-03 23:13 | 40.79266 | -110.43688 | 26393 ft | 456 kts | 99° |
| 2026-05-03 23:13 | 40.78744 | -110.39547 | 26541 ft | 458 kts | 99° |
| 2026-05-03 23:13 | 40.78221 | -110.35408 | 26663 ft | 459 kts | 99° |
| 2026-05-03 23:14 | 40.77695 | -110.31248 | 26841 ft | 460 kts | 99° |
| 2026-05-03 23:14 | 40.77164 | -110.27085 | 27032 ft | 460 kts | 99° |
| 2026-05-03 23:14 | 40.76633 | -110.22916 | 27173 ft | 462 kts | 99° |
| 2026-05-03 23:14 | 40.76100 | -110.18737 | 27390 ft | 462 kts | 99° |
| 2026-05-03 23:15 | 40.75566 | -110.14554 | 27551 ft | 463 kts | 99° |
| 2026-05-03 23:15 | 40.75028 | -110.10358 | 27678 ft | 465 kts | 99° |
| 2026-05-03 23:15 | 40.74486 | -110.06151 | 27839 ft | 466 kts | 99° |
| 2026-05-03 23:15 | 40.73997 | -110.01930 | 27979 ft | 467 kts | 97° |
| 2026-05-03 23:16 | 40.73637 | -109.97674 | 28168 ft | 467 kts | 95° |
| 2026-05-03 23:16 | 40.73370 | -109.93397 | 28296 ft | 469 kts | 94° |
| 2026-05-03 23:16 | 40.73149 | -109.89161 | 28430 ft | 470 kts | 94° |
| 2026-05-03 23:16 | 40.72932 | -109.84892 | 28897 ft | 465 kts | 94° |
| 2026-05-03 23:17 | 40.72697 | -109.80640 | 29228 ft | 465 kts | 94° |
| 2026-05-03 23:17 | 40.72430 | -109.76387 | 29531 ft | 465 kts | 95° |
| 2026-05-03 23:17 | 40.72140 | -109.72141 | 29788 ft | 466 kts | 95° |
| 2026-05-03 23:17 | 40.71834 | -109.67884 | 30041 ft | 467 kts | 95° |
| 2026-05-03 23:18 | 40.71524 | -109.63624 | 30327 ft | 467 kts | 95° |
| 2026-05-03 23:18 | 40.71218 | -109.59382 | 30663 ft | 465 kts | 95° |
| 2026-05-03 23:18 | 40.70916 | -109.55142 | 31003 ft | 464 kts | 95° |
| 2026-05-03 23:18 | 40.70621 | -109.50912 | 31333 ft | 463 kts | 95° |
| 2026-05-03 23:19 | 40.70327 | -109.46695 | 31670 ft | 461 kts | 95° |
| 2026-05-03 23:19 | 40.70032 | -109.42489 | 31988 ft | 460 kts | 95° |
| 2026-05-03 23:19 | 40.69737 | -109.38293 | 32313 ft | 459 kts | 95° |
| 2026-05-03 23:19 | 40.69440 | -109.34107 | 32620 ft | 458 kts | 95° |
| 2026-05-03 23:20 | 40.69140 | -109.29930 | 32923 ft | 458 kts | 95° |
| 2026-05-03 23:20 | 40.68836 | -109.25761 | 33217 ft | 457 kts | 95° |
| 2026-05-03 23:20 | 40.68533 | -109.21596 | 33495 ft | 456 kts | 95° |
| 2026-05-03 23:20 | 40.68231 | -109.17438 | 33765 ft | 456 kts | 95° |
| 2026-05-03 23:21 | 40.67927 | -109.13287 | 34052 ft | 455 kts | 95° |
| 2026-05-03 23:21 | 40.67619 | -109.09144 | 34324 ft | 454 kts | 96° |
| 2026-05-03 23:21 | 40.67308 | -109.05020 | 34607 ft | 453 kts | 96° |
| 2026-05-03 23:21 | 40.67008 | -109.00896 | 34874 ft | 452 kts | 95° |
| 2026-05-03 23:22 | 40.66483 | -108.92665 | 35007 ft | 449 kts | 94° |
| 2026-05-03 23:22 | 40.65990 | -108.84509 | 35006 ft | 446 kts | 95° |
| 2026-05-03 23:23 | 40.65467 | -108.76374 | 35006 ft | 445 kts | 95° |
| 2026-05-03 23:23 | 40.64926 | -108.68254 | 35011 ft | 445 kts | 95° |
| 2026-05-03 23:24 | 40.64382 | -108.60134 | 35011 ft | 445 kts | 95° |
| 2026-05-03 23:24 | 40.63838 | -108.52077 | 35007 ft | 445 kts | 95° |
| 2026-05-03 23:25 | 40.63285 | -108.43957 | 35013 ft | 445 kts | 95° |
| 2026-05-03 23:25 | 40.62728 | -108.35815 | 34856 ft | 452 kts | 95° |
| 2026-05-03 23:26 | 40.62151 | -108.27458 | 34861 ft | 464 kts | 96° |
| 2026-05-03 23:26 | 40.61550 | -108.18910 | 34860 ft | 472 kts | 96° |
| 2026-05-03 23:27 | 40.60932 | -108.10286 | 34873 ft | 474 kts | 96° |
| 2026-05-03 23:27 | 40.60310 | -108.01657 | 34888 ft | 474 kts | 96° |
| 2026-05-03 23:28 | 40.59688 | -107.93036 | 34882 ft | 474 kts | 96° |
| 2026-05-03 23:28 | 40.59056 | -107.84404 | 34899 ft | 474 kts | 96° |
| 2026-05-03 23:29 | 40.58425 | -107.75776 | 34967 ft | 474 kts | 96° |
| 2026-05-03 23:29 | 40.57782 | -107.67139 | 35004 ft | 475 kts | 96° |
| 2026-05-03 23:30 | 40.57135 | -107.58500 | 35024 ft | 475 kts | 96° |
| 2026-05-03 23:30 | 40.56588 | -107.51305 | 35026 ft | 476 kts | 96° |
| 2026-05-03 23:31 | 40.55933 | -107.42645 | 35027 ft | 476 kts | 96° |
| 2026-05-03 23:31 | 40.55271 | -107.33984 | 35053 ft | 476 kts | 96° |
| 2026-05-03 23:32 | 40.54595 | -107.25335 | 35062 ft | 476 kts | 96° |
| 2026-05-03 23:32 | 40.53916 | -107.16676 | 35063 ft | 476 kts | 96° |
| 2026-05-03 23:33 | 40.53234 | -107.08016 | 35049 ft | 476 kts | 96° |
| 2026-05-03 23:33 | 40.52543 | -106.99350 | 34933 ft | 482 kts | 96° |
| 2026-05-03 23:34 | 40.52187 | -106.94939 | 34671 ft | 487 kts | 96° |
| 2026-05-03 23:34 | 40.51827 | -106.90515 | 34407 ft | 487 kts | 96° |
| 2026-05-03 23:34 | 40.51465 | -106.86098 | 34217 ft | 485 kts | 96° |
| 2026-05-03 23:34 | 40.51106 | -106.81698 | 33973 ft | 483 kts | 96° |
| 2026-05-03 23:35 | 40.50749 | -106.77319 | 33703 ft | 481 kts | 96° |
| 2026-05-03 23:35 | 40.50390 | -106.72968 | 33418 ft | 479 kts | 96° |
| 2026-05-03 23:35 | 40.50027 | -106.68629 | 33146 ft | 477 kts | 96° |
| 2026-05-03 23:35 | 40.49663 | -106.64302 | 32866 ft | 476 kts | 96° |
| 2026-05-03 23:36 | 40.49299 | -106.59992 | 32555 ft | 473 kts | 96° |
| 2026-05-03 23:36 | 40.48938 | -106.55701 | 31935 ft | 472 kts | 96° |
| 2026-05-03 23:36 | 40.48580 | -106.51428 | 31418 ft | 469 kts | 96° |
| 2026-05-03 23:36 | 40.48216 | -106.47184 | 30846 ft | 466 kts | 96° |
| 2026-05-03 23:37 | 40.47841 | -106.42966 | 30327 ft | 464 kts | 96° |
| 2026-05-03 23:37 | 40.47461 | -106.38771 | 29762 ft | 461 kts | 96° |
| 2026-05-03 23:37 | 40.47080 | -106.34610 | 29252 ft | 457 kts | 96° |
| 2026-05-03 23:37 | 40.46701 | -106.30479 | 28725 ft | 454 kts | 96° |
| 2026-05-03 23:38 | 40.46330 | -106.26436 | 28223 ft | 450 kts | 96° |
| 2026-05-03 23:38 | 40.45957 | -106.22376 | 27735 ft | 446 kts | 96° |
| 2026-05-03 23:38 | 40.45586 | -106.18344 | 27266 ft | 443 kts | 97° |
| 2026-05-03 23:38 | 40.45217 | -106.14350 | 26788 ft | 439 kts | 97° |
| 2026-05-03 23:39 | 40.44863 | -106.10398 | 26517 ft | 435 kts | 96° |
| 2026-05-03 23:39 | 40.44522 | -106.06457 | 26212 ft | 433 kts | 96° |
| 2026-05-03 23:39 | 40.44189 | -106.02534 | 25898 ft | 431 kts | 96° |
| 2026-05-03 23:39 | 40.43855 | -105.98628 | 25597 ft | 429 kts | 96° |
| 2026-05-03 23:40 | 40.43517 | -105.94751 | 25272 ft | 428 kts | 97° |
| 2026-05-03 23:40 | 40.43167 | -105.90884 | 24974 ft | 426 kts | 98° |
| 2026-05-03 23:40 | 40.42713 | -105.87052 | 24572 ft | 423 kts | 101° |
| 2026-05-03 23:40 | 40.42149 | -105.83276 | 24197 ft | 421 kts | 103° |
| 2026-05-03 23:41 | 40.41520 | -105.79542 | 23812 ft | 418 kts | 104° |
| 2026-05-03 23:41 | 40.40871 | -105.75838 | 23388 ft | 415 kts | 104° |
| 2026-05-03 23:41 | 40.40233 | -105.72160 | 22986 ft | 413 kts | 103° |
| 2026-05-03 23:41 | 40.39615 | -105.68491 | 22591 ft | 410 kts | 103° |
| 2026-05-03 23:42 | 40.39022 | -105.64843 | 22218 ft | 408 kts | 102° |
| 2026-05-03 23:42 | 40.38448 | -105.61219 | 21788 ft | 403 kts | 102° |
| 2026-05-03 23:42 | 40.37884 | -105.57632 | 21298 ft | 401 kts | 102° |
| 2026-05-03 23:42 | 40.37324 | -105.54071 | 20811 ft | 398 kts | 102° |
| 2026-05-03 23:43 | 40.36763 | -105.50534 | 20419 ft | 393 kts | 102° |
| 2026-05-03 23:43 | 40.36205 | -105.47048 | 19953 ft | 390 kts | 102° |
| 2026-05-03 23:43 | 40.35644 | -105.43575 | 19514 ft | 388 kts | 102° |
| 2026-05-03 23:43 | 40.35090 | -105.40155 | 19332 ft | 378 kts | 103° |
| 2026-05-03 23:44 | 40.34287 | -105.36948 | 19194 ft | 365 kts | 115° |
| 2026-05-03 23:44 | 40.33032 | -105.34109 | 18922 ft | 357 kts | 128° |
| 2026-05-03 23:44 | 40.31520 | -105.31550 | 18600 ft | 352 kts | 129° |
| 2026-05-03 23:44 | 40.30034 | -105.29041 | 18422 ft | 348 kts | 129° |
| 2026-05-03 23:45 | 40.28553 | -105.26533 | 18287 ft | 348 kts | 128° |
| 2026-05-03 23:45 | 40.27080 | -105.24038 | 18122 ft | 345 kts | 128° |
| 2026-05-03 23:45 | 40.25625 | -105.21586 | 17947 ft | 345 kts | 129° |
| 2026-05-03 23:45 | 40.24149 | -105.19104 | 17782 ft | 345 kts | 129° |
| 2026-05-03 23:46 | 40.22659 | -105.16598 | 17607 ft | 344 kts | 128° |
| 2026-05-03 23:46 | 40.21214 | -105.14169 | 17436 ft | 343 kts | 128° |
| 2026-05-03 23:46 | 40.19746 | -105.11707 | 17264 ft | 342 kts | 128° |
| 2026-05-03 23:46 | 40.18286 | -105.09256 | 17082 ft | 341 kts | 128° |
| 2026-05-03 23:47 | 40.16831 | -105.06808 | 16915 ft | 340 kts | 128° |
| 2026-05-03 23:47 | 40.15382 | -105.04367 | 16715 ft | 339 kts | 128° |
| 2026-05-03 23:47 | 40.14108 | -105.01782 | 16505 ft | 338 kts | 116° |
| 2026-05-03 23:47 | 40.13143 | -104.98989 | 16161 ft | 337 kts | 114° |
| 2026-05-03 23:48 | 40.12186 | -104.96196 | 15969 ft | 336 kts | 114° |
| 2026-05-03 23:48 | 40.11239 | -104.93443 | 15787 ft | 335 kts | 115° |
| 2026-05-03 23:48 | 40.10284 | -104.90666 | 15594 ft | 335 kts | 115° |
| 2026-05-03 23:48 | 40.09327 | -104.87890 | 15407 ft | 335 kts | 115° |
| 2026-05-03 23:49 | 40.08369 | -104.85120 | 15212 ft | 334 kts | 115° |
| 2026-05-03 23:49 | 40.07415 | -104.82365 | 15094 ft | 333 kts | 115° |
| 2026-05-03 23:49 | 40.06388 | -104.79670 | 14898 ft | 331 kts | 123° |
| 2026-05-03 23:49 | 40.05079 | -104.77209 | 14637 ft | 329 kts | 127° |
| 2026-05-03 23:50 | 40.03748 | -104.74786 | 14398 ft | 328 kts | 127° |
| 2026-05-03 23:50 | 40.02870 | -104.73190 | 14234 ft | 327 kts | 127° |
| 2026-05-03 23:50 | 40.01102 | -104.69980 | 13902 ft | 324 kts | 127° |
| 2026-05-03 23:50 | 39.99783 | -104.67592 | 13646 ft | 323 kts | 126° |
| 2026-05-03 23:51 | 39.98474 | -104.65217 | 13394 ft | 322 kts | 126° |
| 2026-05-03 23:51 | 39.97168 | -104.62848 | 13140 ft | 322 kts | 126° |
| 2026-05-03 23:51 | 39.95858 | -104.60467 | 12880 ft | 323 kts | 126° |
| 2026-05-03 23:51 | 39.94551 | -104.58089 | 12626 ft | 322 kts | 126° |
| 2026-05-03 23:52 | 39.93254 | -104.55722 | 12379 ft | 321 kts | 126° |
| 2026-05-03 23:52 | 39.91922 | -104.53398 | 12106 ft | 319 kts | 133° |
| 2026-05-03 23:52 | 39.90247 | -104.51552 | 11841 ft | 314 kts | 150° |
| 2026-05-03 23:52 | 39.88273 | -104.50395 | 11598 ft | 310 kts | 167° |
| 2026-05-03 23:53 | 39.86172 | -104.49980 | 11410 ft | 301 kts | 183° |
| 2026-05-03 23:53 | 39.84116 | -104.50021 | 11244 ft | 292 kts | 183° |
| 2026-05-03 23:53 | 39.82120 | -104.50052 | 11129 ft | 282 kts | 183° |
| 2026-05-03 23:53 | 39.80178 | -104.50070 | 11028 ft | 277 kts | 182° |
| 2026-05-03 23:54 | 39.78255 | -104.50083 | 10862 ft | 275 kts | 183° |
| 2026-05-03 23:54 | 39.76343 | -104.50095 | 10705 ft | 274 kts | 184° |
| 2026-05-03 23:54 | 39.74433 | -104.50106 | 10556 ft | 274 kts | 182° |
| 2026-05-03 23:54 | 39.72553 | -104.50114 | 10418 ft | 273 kts | 182° |
| 2026-05-03 23:55 | 39.70655 | -104.50121 | 10287 ft | 272 kts | 183° |
| 2026-05-03 23:55 | 39.68760 | -104.50128 | 10173 ft | 272 kts | 183° |
| 2026-05-03 23:55 | 39.66897 | -104.50386 | 10060 ft | 267 kts | 202° |
| 2026-05-03 23:55 | 39.65371 | -104.51636 | 9965 ft | 258 kts | 231° |
| 2026-05-03 23:56 | 39.64395 | -104.53559 | 9872 ft | 255 kts | 244° |
| 2026-05-03 23:56 | 39.63711 | -104.55670 | 9768 ft | 253 kts | 259° |
| 2026-05-03 23:56 | 39.63564 | -104.57918 | 9648 ft | 251 kts | 277° |
| 2026-05-03 23:56 | 39.63976 | -104.60111 | 9537 ft | 252 kts | 294° |
| 2026-05-03 23:57 | 39.64908 | -104.62022 | 9458 ft | 251 kts | 312° |
| 2026-05-03 23:57 | 39.66246 | -104.63431 | 9401 ft | 244 kts | 328° |
| 2026-05-03 23:57 | 39.67816 | -104.64208 | 9294 ft | 242 kts | 346° |
| 2026-05-03 23:57 | 39.69506 | -104.64342 | 9192 ft | 245 kts | 358° |
| 2026-05-03 23:58 | 39.71215 | -104.64319 | 9093 ft | 245 kts | 358° |
| 2026-05-03 23:58 | 39.72899 | -104.64296 | 8853 ft | 238 kts | 358° |
| 2026-05-03 23:58 | 39.74464 | -104.64274 | 8767 ft | 212 kts | 356° |
| 2026-05-03 23:58 | 39.75860 | -104.64256 | 8631 ft | 191 kts | 358° |
| 2026-05-03 23:59 | 39.77132 | -104.64242 | 8331 ft | 180 kts | 356° |
| 2026-05-03 23:59 | 39.78376 | -104.64231 | 7729 ft | 179 kts | 356° |
| 2026-05-03 23:59 | 39.79630 | -104.64232 | 7029 ft | 182 kts | 357° |
| 2026-05-03 23:59 | 39.80916 | -104.64210 | 6308 ft | 186 kts | 357° |
| 2026-05-04 00:00 | 39.82191 | -104.64174 | 5655 ft | 177 kts | 357° |
| 2026-05-04 00:00 | 39.83375 | -104.64169 | 5399 ft | 166 kts | 355° |
| 2026-05-04 00:00 | 39.84443 | -104.64181 | 5365 ft | 137 kts | 3° |
| 2026-05-04 00:00 | 39.85221 | -104.64155 | 5358 ft | 87 kts | 2° |
| 2026-05-04 00:01 | 39.85544 | -104.64186 | 5354 ft | 18 kts | 327° |
| 2026-05-04 00:01 | 39.85623 | -104.64239 | 5354 ft | 10 kts | 336° |